sensor_id;sensor_type;location;lat;lon;timestamp;pressure;altitude;pressure_sealevel;temperature;humidity
47556;BME280;33291;46.222;26.460;2023-02-02T00:01:50;95930.22;;;-0.96;89.82
47556;BME280;33291;46.222;26.460;2023-02-02T00:04:22;95929.13;;;-0.92;89.54
47556;BME280;33291;46.222;26.460;2023-02-02T00:06:48;95926.41;;;-0.88;89.61
47556;BME280;33291;46.222;26.460;2023-02-02T00:09:16;95922.22;;;-0.90;88.81
47556;BME280;33291;46.222;26.460;2023-02-02T00:11:42;95921.56;;;-0.77;88.44
47556;BME280;33291;46.222;26.460;2023-02-02T00:14:09;95915.34;;;-0.73;86.56
47556;BME280;33291;46.222;26.460;2023-02-02T00:19:06;95912.97;;;-0.30;81.28
47556;BME280;33291;46.222;26.460;2023-02-02T00:21:32;95916.50;;;-0.16;81.21
47556;BME280;33291;46.222;26.460;2023-02-02T00:23:57;95901.97;;;-0.16;81.14
47556;BME280;33291;46.222;26.460;2023-02-02T00:26:23;95912.06;;;0.02;80.84
47556;BME280;33291;46.222;26.460;2023-02-02T00:28:48;95908.75;;;-0.01;79.97
47556;BME280;33291;46.222;26.460;2023-02-02T00:31:14;95915.81;;;0.10;79.91
47556;BME280;33291;46.222;26.460;2023-02-02T00:33:45;95914.72;;;0.14;79.66
47556;BME280;33291;46.222;26.460;2023-02-02T00:36:11;95915.38;;;0.18;79.58
47556;BME280;33291;46.222;26.460;2023-02-02T00:38:36;95904.22;;;0.19;80.32
47556;BME280;33291;46.222;26.460;2023-02-02T00:41:03;95892.31;;;0.18;79.23
47556;BME280;33291;46.222;26.460;2023-02-02T00:43:28;95903.50;;;0.31;78.61
47556;BME280;33291;46.222;26.460;2023-02-02T00:45:54;95884.25;;;0.24;79.16
47556;BME280;33291;46.222;26.460;2023-02-02T00:48:20;95896.81;;;0.29;79.21
47556;BME280;33291;46.222;26.460;2023-02-02T00:50:46;95908.44;;;0.34;79.71
47556;BME280;33291;46.222;26.460;2023-02-02T00:53:11;95906.72;;;0.35;79.17
47556;BME280;33291;46.222;26.460;2023-02-02T00:55:37;95901.50;;;0.37;78.58
47556;BME280;33291;46.222;26.460;2023-02-02T00:58:02;95905.03;;;0.48;78.38
47556;BME280;33291;46.222;26.460;2023-02-02T01:00:28;95898.75;;;0.54;77.58
47556;BME280;33291;46.222;26.460;2023-02-02T01:02:53;95908.72;;;0.59;77.37
47556;BME280;33291;46.222;26.460;2023-02-02T01:05:20;95896.28;;;0.67;76.54
47556;BME280;33291;46.222;26.460;2023-02-02T01:07:46;95903.41;;;0.76;75.31
47556;BME280;33291;46.222;26.460;2023-02-02T01:10:14;95912.63;;;0.79;76.09
47556;BME280;33291;46.222;26.460;2023-02-02T01:12:40;95907.50;;;0.79;75.90
47556;BME280;33291;46.222;26.460;2023-02-02T01:15:08;95912.53;;;0.80;75.56
47556;BME280;33291;46.222;26.460;2023-02-02T01:17:33;95913.28;;;0.82;75.62
47556;BME280;33291;46.222;26.460;2023-02-02T01:19:59;95915.75;;;0.84;75.38
47556;BME280;33291;46.222;26.460;2023-02-02T01:22:25;95923.34;;;0.85;74.67
47556;BME280;33291;46.222;26.460;2023-02-02T01:24:50;95901.72;;;0.89;74.21
47556;BME280;33291;46.222;26.460;2023-02-02T01:27:16;95894.03;;;0.89;75.12
47556;BME280;33291;46.222;26.460;2023-02-02T01:29:42;95899.06;;;0.91;76.70
47556;BME280;33291;46.222;26.460;2023-02-02T01:32:08;95899.34;;;0.86;76.55
47556;BME280;33291;46.222;26.460;2023-02-02T01:34:33;95893.41;;;0.86;75.89
47556;BME280;33291;46.222;26.460;2023-02-02T01:36:59;95884.81;;;0.87;76.68
47556;BME280;33291;46.222;26.460;2023-02-02T01:39:24;95890.84;;;0.86;75.03
47556;BME280;33291;46.222;26.460;2023-02-02T01:41:50;95890.22;;;0.82;77.18
47556;BME280;33291;46.222;26.460;2023-02-02T01:47:21;95879.50;;;0.76;77.37
47556;BME280;33291;46.222;26.460;2023-02-02T01:49:47;95867.16;;;0.68;78.61
47556;BME280;33291;46.222;26.460;2023-02-02T01:52:16;95864.59;;;0.68;78.16
47556;BME280;33291;46.222;26.460;2023-02-02T01:54:49;95866.25;;;0.69;78.37
47556;BME280;33291;46.222;26.460;2023-02-02T01:57:29;95865.63;;;0.65;79.74
47556;BME280;33291;46.222;26.460;2023-02-02T01:59:57;95856.38;;;0.63;76.23
47556;BME280;33291;46.222;26.460;2023-02-02T02:02:25;95852.88;;;0.64;78.77
47556;BME280;33291;46.222;26.460;2023-02-02T02:04:53;95850.47;;;0.61;78.96
47556;BME280;33291;46.222;26.460;2023-02-02T02:07:20;95839.03;;;0.66;73.14
47556;BME280;33291;46.222;26.460;2023-02-02T02:09:46;95830.53;;;0.66;74.46
47556;BME280;33291;46.222;26.460;2023-02-02T02:12:12;95857.44;;;0.73;77.68
47556;BME280;33291;46.222;26.460;2023-02-02T02:14:45;95841.25;;;0.58;77.13
47556;BME280;33291;46.222;26.460;2023-02-02T02:26:28;95856.38;;;0.63;73.92
47556;BME280;33291;46.222;26.460;2023-02-02T02:42:54;95865.34;;;0.70;73.74
47556;BME280;33291;46.222;26.460;2023-02-02T02:45:22;95878.69;;;0.75;73.57
47556;BME280;33291;46.222;26.460;2023-02-02T02:47:50;95869.13;;;0.77;74.02
47556;BME280;33291;46.222;26.460;2023-02-02T02:50:16;95872.25;;;0.82;73.84
47556;BME280;33291;46.222;26.460;2023-02-02T02:52:42;95865.19;;;0.86;74.02
47556;BME280;33291;46.222;26.460;2023-02-02T02:55:09;95860.88;;;0.86;73.18
47556;BME280;33291;46.222;26.460;2023-02-02T02:58:15;95854.75;;;0.89;74.32
47556;BME280;33291;46.222;26.460;2023-02-02T03:05:59;95850.91;;;0.82;75.76
47556;BME280;33291;46.222;26.460;2023-02-02T03:08:39;95826.69;;;0.59;76.60
47556;BME280;33291;46.222;26.460;2023-02-02T03:11:07;95851.75;;;0.68;77.28
47556;BME280;33291;46.222;26.460;2023-02-02T03:13:33;95854.13;;;0.71;77.74
47556;BME280;33291;46.222;26.460;2023-02-02T03:15:59;95851.56;;;0.71;79.12
47556;BME280;33291;46.222;26.460;2023-02-02T03:18:28;95850.84;;;0.69;78.99
47556;BME280;33291;46.222;26.460;2023-02-02T03:20:55;95853.22;;;0.72;78.94
47556;BME280;33291;46.222;26.460;2023-02-02T03:23:21;95866.75;;;0.74;79.67
47556;BME280;33291;46.222;26.460;2023-02-02T03:25:47;95857.63;;;0.70;79.54
47556;BME280;33291;46.222;26.460;2023-02-02T03:28:13;95861.53;;;0.76;79.71
47556;BME280;33291;46.222;26.460;2023-02-02T03:30:39;95852.13;;;0.76;79.63
47556;BME280;33291;46.222;26.460;2023-02-02T03:33:06;95845.06;;;0.80;79.90
47556;BME280;33291;46.222;26.460;2023-02-02T03:35:32;95835.72;;;0.79;79.96
47556;BME280;33291;46.222;26.460;2023-02-02T03:37:57;95834.53;;;0.84;81.03
47556;BME280;33291;46.222;26.460;2023-02-02T03:40:23;95822.63;;;0.83;81.15
47556;BME280;33291;46.222;26.460;2023-02-02T03:42:49;95827.31;;;0.77;82.34
47556;BME280;33291;46.222;26.460;2023-02-02T03:45:14;95816.06;;;0.79;81.75
47556;BME280;33291;46.222;26.460;2023-02-02T03:47:40;95819.53;;;0.78;82.31
47556;BME280;33291;46.222;26.460;2023-02-02T03:50:06;95821.38;;;0.76;82.44
47556;BME280;33291;46.222;26.460;2023-02-02T03:52:32;95819.72;;;0.75;82.02
47556;BME280;33291;46.222;26.460;2023-02-02T03:54:57;95814.59;;;0.75;81.82
47556;BME280;33291;46.222;26.460;2023-02-02T03:57:23;95804.00;;;0.67;81.44
47556;BME280;33291;46.222;26.460;2023-02-02T03:59:48;95818.72;;;0.78;81.16
47556;BME280;33291;46.222;26.460;2023-02-02T04:02:14;95817.34;;;0.72;81.53
47556;BME280;33291;46.222;26.460;2023-02-02T04:04:39;95817.78;;;0.79;80.71
47556;BME280;33291;46.222;26.460;2023-02-02T04:07:05;95830.59;;;0.79;80.87
47556;BME280;33291;46.222;26.460;2023-02-02T04:09:30;95819.53;;;0.78;80.14
47556;BME280;33291;46.222;26.460;2023-02-02T04:11:56;95829.78;;;0.78;80.52
47556;BME280;33291;46.222;26.460;2023-02-02T04:14:21;95824.03;;;0.75;80.81
47556;BME280;33291;46.222;26.460;2023-02-02T04:16:47;95833.81;;;0.82;80.74
47556;BME280;33291;46.222;26.460;2023-02-02T04:19:12;95826.41;;;0.78;80.76
47556;BME280;33291;46.222;26.460;2023-02-02T04:21:38;95839.03;;;0.81;80.66
47556;BME280;33291;46.222;26.460;2023-02-02T04:24:06;95843.59;;;0.76;80.85
47556;BME280;33291;46.222;26.460;2023-02-02T04:26:31;95847.19;;;0.73;81.74
47556;BME280;33291;46.222;26.460;2023-02-02T04:28:57;95850.13;;;0.67;82.57
47556;BME280;33291;46.222;26.460;2023-02-02T04:31:22;95855.63;;;0.61;82.96
47556;BME280;33291;46.222;26.460;2023-02-02T04:33:48;95846.66;;;0.53;83.39
47556;BME280;33291;46.222;26.460;2023-02-02T04:36:13;95847.84;;;0.48;84.30
47556;BME280;33291;46.222;26.460;2023-02-02T04:38:39;95838.34;;;0.35;84.70
47556;BME280;33291;46.222;26.460;2023-02-02T04:41:08;95844.38;;;0.34;84.49
47556;BME280;33291;46.222;26.460;2023-02-02T04:43:35;95849.97;;;0.27;85.16
47556;BME280;33291;46.222;26.460;2023-02-02T04:46:01;95852.72;;;0.24;85.47
47556;BME280;33291;46.222;26.460;2023-02-02T04:48:27;95844.41;;;0.20;85.90
47556;BME280;33291;46.222;26.460;2023-02-02T04:51:00;95842.28;;;0.12;86.62
47556;BME280;33291;46.222;26.460;2023-02-02T04:53:26;95849.41;;;0.07;86.70
47556;BME280;33291;46.222;26.460;2023-02-02T04:55:52;95855.09;;;0.12;84.11
47556;BME280;33291;46.222;26.460;2023-02-02T04:58:17;95860.75;;;0.17;84.68
47556;BME280;33291;46.222;26.460;2023-02-02T05:00:43;95849.97;;;0.12;84.62
47556;BME280;33291;46.222;26.460;2023-02-02T05:03:09;95855.63;;;0.17;85.35
47556;BME280;33291;46.222;26.460;2023-02-02T05:05:34;95860.22;;;0.27;83.23
47556;BME280;33291;46.222;26.460;2023-02-02T05:08:00;95848.97;;;0.29;82.84
47556;BME280;33291;46.222;26.460;2023-02-02T05:10:26;95857.94;;;0.37;81.99
47556;BME280;33291;46.222;26.460;2023-02-02T05:12:54;95853.72;;;0.35;82.10
47556;BME280;33291;46.222;26.460;2023-02-02T05:15:21;95857.00;;;0.38;82.90
47556;BME280;33291;46.222;26.460;2023-02-02T05:17:47;95858.94;;;0.34;84.24
47556;BME280;33291;46.222;26.460;2023-02-02T05:20:13;95853.44;;;0.26;84.62
47556;BME280;33291;46.222;26.460;2023-02-02T05:22:39;95843.84;;;0.15;85.54
47556;BME280;33291;46.222;26.460;2023-02-02T05:25:05;95843.09;;;0.13;84.79
47556;BME280;33291;46.222;26.460;2023-02-02T05:27:31;95843.28;;;0.10;84.90
47556;BME280;33291;46.222;26.460;2023-02-02T05:29:57;95833.84;;;0.10;84.11
47556;BME280;33291;46.222;26.460;2023-02-02T05:32:23;95843.28;;;0.10;83.57
47556;BME280;33291;46.222;26.460;2023-02-02T05:34:49;95838.06;;;0.11;83.53
47556;BME280;33291;46.222;26.460;2023-02-02T05:37:14;95837.25;;;0.11;83.36
47556;BME280;33291;46.222;26.460;2023-02-02T05:39:40;95830.56;;;0.08;83.81
47556;BME280;33291;46.222;26.460;2023-02-02T05:42:05;95843.28;;;0.10;83.68
47556;BME280;33291;46.222;26.460;2023-02-02T05:44:31;95829.28;;;0.01;82.54
47556;BME280;33291;46.222;26.460;2023-02-02T05:46:56;95852.19;;;0.19;81.74
47556;BME280;33291;46.222;26.460;2023-02-02T05:49:22;95857.38;;;0.17;81.83
47556;BME280;33291;46.222;26.460;2023-02-02T05:51:54;95861.50;;;0.34;78.25
47556;BME280;33291;46.222;26.460;2023-02-02T05:54:21;95865.78;;;0.48;76.54
47556;BME280;33291;46.222;26.460;2023-02-02T05:56:47;95871.84;;;0.61;76.97
47556;BME280;33291;46.222;26.460;2023-02-02T05:59:13;95851.31;;;0.61;76.00
47556;BME280;33291;46.222;26.460;2023-02-02T06:01:38;95873.56;;;0.75;75.63
47556;BME280;33291;46.222;26.460;2023-02-02T06:04:04;95883.00;;;0.75;76.31
47556;BME280;33291;46.222;26.460;2023-02-02T06:06:29;95878.59;;;0.77;75.47
47556;BME280;33291;46.222;26.460;2023-02-02T06:08:55;95867.59;;;0.75;76.00
47556;BME280;33291;46.222;26.460;2023-02-02T06:11:20;95879.78;;;0.85;74.84
47556;BME280;33291;46.222;26.460;2023-02-02T06:13:46;95864.28;;;0.87;74.35
47556;BME280;33291;46.222;26.460;2023-02-02T06:16:12;95868.19;;;0.93;75.21
47556;BME280;33291;46.222;26.460;2023-02-02T06:18:37;95867.09;;;0.97;73.33
47556;BME280;33291;46.222;26.460;2023-02-02T06:21:04;95858.28;;;1.01;73.12
47556;BME280;33291;46.222;26.460;2023-02-02T06:23:31;95869.81;;;1.08;73.53
47556;BME280;33291;46.222;26.460;2023-02-02T06:25:58;95862.84;;;1.10;73.76
47556;BME280;33291;46.222;26.460;2023-02-02T06:28:23;95863.56;;;1.12;73.72
47556;BME280;33291;46.222;26.460;2023-02-02T06:30:49;95866.78;;;1.16;73.00
47556;BME280;33291;46.222;26.460;2023-02-02T06:33:14;95852.00;;;1.19;72.84
47556;BME280;33291;46.222;26.460;2023-02-02T06:35:40;95858.41;;;1.27;72.33
47556;BME280;33291;46.222;26.460;2023-02-02T06:38:05;95852.16;;;1.31;72.14
47556;BME280;33291;46.222;26.460;2023-02-02T06:40:31;95865.50;;;1.36;71.54
47556;BME280;33291;46.222;26.460;2023-02-02T06:42:57;95851.38;;;1.43;71.20
47556;BME280;33291;46.222;26.460;2023-02-02T06:45:24;95857.22;;;1.45;70.11
47556;BME280;33291;46.222;26.460;2023-02-02T06:47:50;95851.09;;;1.60;69.83
47556;BME280;33291;46.222;26.460;2023-02-02T06:50:16;95847.72;;;1.60;69.65
47556;BME280;33291;46.222;26.460;2023-02-02T06:52:48;95848.31;;;1.64;69.82
47556;BME280;33291;46.222;26.460;2023-02-02T06:55:14;95853.47;;;1.64;70.63
47556;BME280;33291;46.222;26.460;2023-02-02T06:57:40;95848.94;;;1.54;70.89
47556;BME280;33291;46.222;26.460;2023-02-02T07:00:06;95859.19;;;1.54;70.99
47556;BME280;33291;46.222;26.460;2023-02-02T07:02:32;95855.91;;;1.52;72.81
47556;BME280;33291;46.222;26.460;2023-02-02T07:04:57;95856.81;;;1.38;73.74
47556;BME280;33291;46.222;26.460;2023-02-02T07:07:23;95863.06;;;1.47;72.78
47556;BME280;33291;46.222;26.460;2023-02-02T07:09:48;95880.03;;;1.50;72.44
47556;BME280;33291;46.222;26.460;2023-02-02T07:12:14;95858.97;;;1.45;72.12
47556;BME280;33291;46.222;26.460;2023-02-02T07:14:39;95872.78;;;1.56;71.87
47556;BME280;33291;46.222;26.460;2023-02-02T07:17:05;95878.63;;;1.58;72.09
47556;BME280;33291;46.222;26.460;2023-02-02T07:19:30;95870.91;;;1.58;72.15
47556;BME280;33291;46.222;26.460;2023-02-02T07:21:56;95867.94;;;1.65;72.44
47556;BME280;33291;46.222;26.460;2023-02-02T07:24:21;95872.78;;;1.69;72.00
47556;BME280;33291;46.222;26.460;2023-02-02T07:26:47;95864.88;;;1.72;71.13
47556;BME280;33291;46.222;26.460;2023-02-02T07:29:13;95864.59;;;1.77;70.50
47556;BME280;33291;46.222;26.460;2023-02-02T07:31:39;95854.81;;;1.82;70.71
47556;BME280;33291;46.222;26.460;2023-02-02T07:34:04;95860.06;;;1.81;70.71
47556;BME280;33291;46.222;26.460;2023-02-02T07:36:30;95871.78;;;1.85;71.70
47556;BME280;33291;46.222;26.460;2023-02-02T07:38:55;95874.44;;;1.83;71.16
47556;BME280;33291;46.222;26.460;2023-02-02T07:41:26;95869.50;;;1.80;71.28
47556;BME280;33291;46.222;26.460;2023-02-02T07:43:52;95882.69;;;1.88;71.01
47556;BME280;33291;46.222;26.460;2023-02-02T07:46:18;95883.50;;;1.89;71.17
47556;BME280;33291;46.222;26.460;2023-02-02T07:48:44;95882.28;;;1.94;70.94
47556;BME280;33291;46.222;26.460;2023-02-02T07:51:14;95871.91;;;1.96;70.29
47556;BME280;33291;46.222;26.460;2023-02-02T07:53:45;95858.22;;;1.95;70.21
47556;BME280;33291;46.222;26.460;2023-02-02T07:56:13;95850.31;;;1.99;70.21
47556;BME280;33291;46.222;26.460;2023-02-02T07:58:39;95842.41;;;2.02;70.02
47556;BME280;33291;46.222;26.460;2023-02-02T08:01:07;95838.41;;;1.98;70.07
47556;BME280;33291;46.222;26.460;2023-02-02T08:03:34;95836.25;;;2.04;69.95
47556;BME280;33291;46.222;26.460;2023-02-02T08:06:00;95836.97;;;2.06;69.76
47556;BME280;33291;46.222;26.460;2023-02-02T08:08:32;95834.41;;;2.06;69.04
47556;BME280;33291;46.222;26.460;2023-02-02T08:10:58;95835.84;;;2.10;69.15
47556;BME280;33291;46.222;26.460;2023-02-02T08:13:23;95810.66;;;2.03;68.97
47556;BME280;33291;46.222;26.460;2023-02-02T08:15:49;95828.25;;;2.09;68.19
47556;BME280;33291;46.222;26.460;2023-02-02T08:18:14;95828.03;;;2.12;68.87
47556;BME280;33291;46.222;26.460;2023-02-02T08:20:39;95828.75;;;2.14;68.15
47556;BME280;33291;46.222;26.460;2023-02-02T08:23:05;95833.50;;;2.20;68.17
47556;BME280;33291;46.222;26.460;2023-02-02T08:25:37;95825.78;;;2.20;68.22
47556;BME280;33291;46.222;26.460;2023-02-02T08:28:03;95831.72;;;2.34;67.73
47556;BME280;33291;46.222;26.460;2023-02-02T08:30:30;95812.91;;;2.33;67.70
47556;BME280;33291;46.222;26.460;2023-02-02T08:32:55;95819.78;;;2.45;67.32
47556;BME280;33291;46.222;26.460;2023-02-02T08:35:21;95810.72;;;2.53;67.43
47556;BME280;33291;46.222;26.460;2023-02-02T08:37:47;95815.44;;;2.59;67.38
47556;BME280;33291;46.222;26.460;2023-02-02T08:40:13;95829.84;;;2.61;66.46
47556;BME280;33291;46.222;26.460;2023-02-02T08:42:39;95831.88;;;2.69;64.72
47556;BME280;33291;46.222;26.460;2023-02-02T08:45:05;95827.06;;;2.64;64.66
47556;BME280;33291;46.222;26.460;2023-02-02T08:47:30;95834.22;;;2.72;64.70
47556;BME280;33291;46.222;26.460;2023-02-02T08:49:56;95827.31;;;2.73;64.54
47556;BME280;33291;46.222;26.460;2023-02-02T08:52:21;95823.09;;;2.72;64.91
47556;BME280;33291;46.222;26.460;2023-02-02T08:54:47;95829.09;;;2.72;65.26
47556;BME280;33291;46.222;26.460;2023-02-02T08:57:12;95829.19;;;2.71;64.73
47556;BME280;33291;46.222;26.460;2023-02-02T08:59:38;95843.56;;;2.73;64.64
47556;BME280;33291;46.222;26.460;2023-02-02T09:02:04;95845.31;;;2.73;64.14
47556;BME280;33291;46.222;26.460;2023-02-02T09:04:29;95847.09;;;2.72;64.50
47556;BME280;33291;46.222;26.460;2023-02-02T09:06:54;95851.38;;;2.72;64.42
47556;BME280;33291;46.222;26.460;2023-02-02T09:09:20;95849.75;;;2.71;64.86
47556;BME280;33291;46.222;26.460;2023-02-02T09:11:45;95857.47;;;2.71;65.31
47556;BME280;33291;46.222;26.460;2023-02-02T09:14:12;95844.84;;;2.67;64.57
47556;BME280;33291;46.222;26.460;2023-02-02T09:16:38;95837.34;;;2.64;65.10
47556;BME280;33291;46.222;26.460;2023-02-02T09:19:05;95838.03;;;2.66;65.37
47556;BME280;33291;46.222;26.460;2023-02-02T09:21:31;95827.75;;;2.66;65.57
47556;BME280;33291;46.222;26.460;2023-02-02T09:24:04;95822.41;;;2.70;66.11
47556;BME280;33291;46.222;26.460;2023-02-02T09:26:30;95825.88;;;2.69;66.15
47556;BME280;33291;46.222;26.460;2023-02-02T09:29:01;95824.16;;;2.69;66.50
47556;BME280;33291;46.222;26.460;2023-02-02T09:31:27;95820.16;;;2.65;66.91
47556;BME280;33291;46.222;26.460;2023-02-02T09:33:53;95821.91;;;2.64;68.13
47556;BME280;33291;46.222;26.460;2023-02-02T09:36:21;95813.34;;;2.64;66.99
47556;BME280;33291;46.222;26.460;2023-02-02T09:38:48;95805.75;;;2.62;66.55
47556;BME280;33291;46.222;26.460;2023-02-02T09:52:02;95810.28;;;2.59;73.78
47556;BME280;33291;46.222;26.460;2023-02-02T09:54:36;95804.03;;;2.50;73.78
47556;BME280;33291;46.222;26.460;2023-02-02T09:57:18;95813.19;;;2.54;74.11
47556;BME280;33291;46.222;26.460;2023-02-02T09:59:47;95801.66;;;2.47;72.54
47556;BME280;33291;46.222;26.460;2023-02-02T10:02:27;95819.25;;;2.53;72.35
47556;BME280;33291;46.222;26.460;2023-02-02T10:05:03;95817.50;;;2.54;71.50
47556;BME280;33291;46.222;26.460;2023-02-02T10:07:37;95824.06;;;2.58;71.27
47556;BME280;33291;46.222;26.460;2023-02-02T10:10:27;95829.94;;;2.60;70.58
47556;BME280;33291;46.222;26.460;2023-02-02T10:15:36;95810.88;;;2.62;68.94
47556;BME280;33291;46.222;26.460;2023-02-02T10:20:55;95790.09;;;2.65;67.92
47556;BME280;33291;46.222;26.460;2023-02-02T10:25:57;95808.78;;;2.80;66.95
47556;BME280;33291;46.222;26.460;2023-02-02T10:31:41;95775.28;;;2.69;66.61
47556;BME280;33291;46.222;26.460;2023-02-02T10:47:34;95797.84;;;3.14;61.50
47556;BME280;33291;46.222;26.460;2023-02-02T10:52:40;95805.75;;;3.24;61.85
47556;BME280;33291;46.222;26.460;2023-02-02T11:00:29;95792.97;;;3.22;57.86
47556;BME280;33291;46.222;26.460;2023-02-02T11:02:56;95801.88;;;3.29;58.08
47556;BME280;33291;46.222;26.460;2023-02-02T11:05:27;95799.31;;;3.29;59.33
47556;BME280;33291;46.222;26.460;2023-02-02T11:08:14;95793.59;;;3.37;57.98
47556;BME280;33291;46.222;26.460;2023-02-02T11:10:42;95792.91;;;3.35;59.08
47556;BME280;33291;46.222;26.460;2023-02-02T11:13:15;95787.75;;;3.35;58.43
47556;BME280;33291;46.222;26.460;2023-02-02T11:15:41;95793.72;;;3.35;59.03
47556;BME280;33291;46.222;26.460;2023-02-02T11:18:33;95788.56;;;3.35;57.62
47556;BME280;33291;46.222;26.460;2023-02-02T11:20:58;95787.97;;;3.32;57.96
47556;BME280;33291;46.222;26.460;2023-02-02T11:23:25;95777.34;;;3.36;57.01
47556;BME280;33291;46.222;26.460;2023-02-02T11:26:00;95759.88;;;3.29;57.37
47556;BME280;33291;46.222;26.460;2023-02-02T11:28:27;95783.19;;;3.38;56.45
47556;BME280;33291;46.222;26.460;2023-02-02T11:30:56;95771.03;;;3.41;56.12
47556;BME280;33291;46.222;26.460;2023-02-02T11:33:36;95771.03;;;3.41;56.82
47556;BME280;33291;46.222;26.460;2023-02-02T11:38:30;95772.59;;;3.54;56.49
47556;BME280;33291;46.222;26.460;2023-02-02T11:41:03;95773.91;;;3.60;56.22
47556;BME280;33291;46.222;26.460;2023-02-02T11:43:37;95764.53;;;3.59;56.00
47556;BME280;33291;46.222;26.460;2023-02-02T11:46:20;95758.47;;;3.60;55.79
47556;BME280;33291;46.222;26.460;2023-02-02T11:48:58;95753.88;;;3.64;55.37
47556;BME280;33291;46.222;26.460;2023-02-02T11:51:26;95752.84;;;3.66;55.77
47556;BME280;33291;46.222;26.460;2023-02-02T11:54:22;95754.59;;;3.66;55.94
47556;BME280;33291;46.222;26.460;2023-02-02T11:56:53;95757.78;;;3.69;56.71
47556;BME280;33291;46.222;26.460;2023-02-02T11:59:40;95744.41;;;3.64;57.64
47556;BME280;33291;46.222;26.460;2023-02-02T12:04:47;95752.97;;;3.65;58.99
47556;BME280;33291;46.222;26.460;2023-02-02T12:09:50;95748.63;;;3.54;59.88
47556;BME280;33291;46.222;26.460;2023-02-02T12:12:26;95756.22;;;3.55;60.23
47556;BME280;33291;46.222;26.460;2023-02-02T12:17:53;95750.09;;;3.45;61.60
47556;BME280;33291;46.222;26.460;2023-02-02T12:33:45;95767.03;;;3.36;64.46
47556;BME280;33291;46.222;26.460;2023-02-02T12:36:22;95768.91;;;3.34;64.78
47556;BME280;33291;46.222;26.460;2023-02-02T12:39:01;95760.59;;;3.31;66.19
47556;BME280;33291;46.222;26.460;2023-02-02T12:44:06;95752.03;;;3.19;68.58
47556;BME280;33291;46.222;26.460;2023-02-02T13:00:07;95775.13;;;3.90;67.34
47556;BME280;33291;46.222;26.460;2023-02-02T13:08:59;95787.47;;;3.62;67.50
47556;BME280;33291;46.222;26.460;2023-02-02T13:11:55;95781.03;;;3.56;67.65
47556;BME280;33291;46.222;26.460;2023-02-02T13:16:57;95779.00;;;3.49;67.92
47556;BME280;33291;46.222;26.460;2023-02-02T13:19:34;95776.03;;;3.31;68.83
47556;BME280;33291;46.222;26.460;2023-02-02T13:22:03;95785.50;;;3.30;69.13
47556;BME280;33291;46.222;26.460;2023-02-02T13:24:33;95795.13;;;3.28;69.70
47556;BME280;33291;46.222;26.460;2023-02-02T13:27:03;95797.91;;;3.25;69.62
47556;BME280;33291;46.222;26.460;2023-02-02T13:29:58;95794.81;;;3.20;69.91
47556;BME280;33291;46.222;26.460;2023-02-02T13:32:32;95791.06;;;3.13;70.54
47556;BME280;33291;46.222;26.460;2023-02-02T13:35:18;95801.38;;;3.13;69.33
47556;BME280;33291;46.222;26.460;2023-02-02T13:37:55;95797.47;;;3.07;69.39
47556;BME280;33291;46.222;26.460;2023-02-02T13:56:49;95814.75;;;3.05;67.63
47556;BME280;33291;46.222;26.460;2023-02-02T14:05:03;95815.38;;;3.09;67.81
47556;BME280;33291;46.222;26.460;2023-02-02T14:07:41;95812.16;;;3.18;66.68
47556;BME280;33291;46.222;26.460;2023-02-02T14:10:27;95812.72;;;3.22;65.79
47556;BME280;33291;46.222;26.460;2023-02-02T14:13:05;95809.56;;;3.18;64.72
47556;BME280;33291;46.222;26.460;2023-02-02T14:15:38;95812.59;;;3.12;63.86
47556;BME280;33291;46.222;26.460;2023-02-02T14:18:05;95813.19;;;3.15;63.52
47556;BME280;33291;46.222;26.460;2023-02-02T14:20:43;95825.72;;;3.20;64.14
47556;BME280;33291;46.222;26.460;2023-02-02T14:26:45;95828.28;;;3.20;61.75
47556;BME280;33291;46.222;26.460;2023-02-02T14:45:45;95830.59;;;3.12;60.58
47556;BME280;33291;46.222;26.460;2023-02-02T14:48:24;95858.13;;;3.23;60.52
47556;BME280;33291;46.222;26.460;2023-02-02T14:50:54;95843.94;;;3.17;59.83
47556;BME280;33291;46.222;26.460;2023-02-02T14:53:31;95845.81;;;3.15;60.02
47556;BME280;33291;46.222;26.460;2023-02-02T14:56:11;95843.13;;;3.16;60.58
47556;BME280;33291;46.222;26.460;2023-02-02T15:01:10;95844.59;;;3.08;61.88
47556;BME280;33291;46.222;26.460;2023-02-02T15:03:56;95858.38;;;3.07;61.40
47556;BME280;33291;46.222;26.460;2023-02-02T15:06:42;95864.50;;;3.06;60.06
47556;BME280;33291;46.222;26.460;2023-02-02T15:20:12;95889.84;;;2.86;61.85
47556;BME280;33291;46.222;26.460;2023-02-02T15:22:55;95891.72;;;2.84;62.29
47556;BME280;33291;46.222;26.460;2023-02-02T15:25:25;95897.88;;;2.81;62.47
47556;BME280;33291;46.222;26.460;2023-02-02T15:28:12;95901.19;;;2.71;67.03
47556;BME280;33291;46.222;26.460;2023-02-02T15:30:44;95917.97;;;2.63;66.83
47556;BME280;33291;46.222;26.460;2023-02-02T15:35:47;95915.41;;;2.51;66.95
47556;BME280;33291;46.222;26.460;2023-02-02T15:38:15;95906.78;;;2.39;67.39
47556;BME280;33291;46.222;26.460;2023-02-02T15:40:41;95920.75;;;2.35;65.72
47556;BME280;33291;46.222;26.460;2023-02-02T15:43:09;95936.16;;;2.35;65.04
47556;BME280;33291;46.222;26.460;2023-02-02T15:45:51;95924.88;;;2.37;62.54
47556;BME280;33291;46.222;26.460;2023-02-02T15:50:50;95938.34;;;2.54;58.40
47556;BME280;33291;46.222;26.460;2023-02-02T15:55:57;95940.72;;;2.57;56.96
47556;BME280;33291;46.222;26.460;2023-02-02T15:58:31;95929.78;;;2.53;59.67
47556;BME280;33291;46.222;26.460;2023-02-02T16:01:01;95946.97;;;2.53;59.66
47556;BME280;33291;46.222;26.460;2023-02-02T16:03:37;95946.38;;;2.49;58.97
47556;BME280;33291;46.222;26.460;2023-02-02T16:06:06;95943.16;;;2.45;59.56
47556;BME280;33291;46.222;26.460;2023-02-02T16:08:35;95953.66;;;2.42;59.89
47556;BME280;33291;46.222;26.460;2023-02-02T16:11:13;95956.31;;;2.41;61.16
47556;BME280;33291;46.222;26.460;2023-02-02T16:16:37;95961.88;;;2.35;58.76
47556;BME280;33291;46.222;26.460;2023-02-02T16:19:19;95966.31;;;2.33;59.65
47556;BME280;33291;46.222;26.460;2023-02-02T16:24:25;95970.59;;;2.19;61.55